X  Close Metar Aviation Weather Data     YBCG Gold Coast Airport
Temperature
70°F Temperature
66°F Dewpoint
88% Humidity



Wind
5 MPH
8 KM/H
2 M/S
4 KTS



230°
SW
Current Conditions

Mostly Scattered Clouds Mostly Scattered Clouds
Pressure 1021 (hPa) - 30.15 (inHg)
Visibility 6 (mile) - 9.7 (km)
Airport
Airport-code YBCG

Location: Gold Coast Airport
Distance: 58 (mi)

Metar:
YBCG 171300Z AUTO 23004KT 9999 // SCT092 SCT120 21/19 Q1021

Time: 17-04-2024 23:00 AEST